createdAt,value
2022-08-04T00:12:47.481Z,99.99
2022-08-04T00:27:48.663Z,99.99
2022-08-04T00:42:59.130Z,99.99
2022-08-04T00:57:56.792Z,99.99
2022-08-04T01:12:57.121Z,99.99
2022-08-04T01:27:58.412Z,99.99
2022-08-04T01:43:00.522Z,99.99
2022-08-04T01:58:01.661Z,99.99
2022-08-04T02:13:02.916Z,99.99
2022-08-04T02:28:04.640Z,99.99
2022-08-04T02:43:07.820Z,99.99
2022-08-04T02:58:09.276Z,99.99
2022-08-04T03:13:10.033Z,99.54
2022-08-04T03:28:11.456Z,99.28
2022-08-04T03:43:58.325Z,99.99
2022-08-04T03:58:18.804Z,99.99
2022-08-04T04:13:19.978Z,97.97
2022-08-04T04:28:43.467Z,98.79
2022-08-04T04:43:52.319Z,99.99
2022-08-04T04:58:32.929Z,99.99
2022-08-04T05:14:34.619Z,90.26
2022-08-04T05:28:39.749Z,81.92
2022-08-04T05:43:41.030Z,74.44
2022-08-04T06:12:24.046Z,62.19
2022-08-04T06:27:24.745Z,59.84
2022-08-04T06:42:25.703Z,55.43
2022-08-04T06:57:26.853Z,55.74
2022-08-04T07:12:28.089Z,52.33
2022-08-04T07:27:47.928Z,51.95
2022-08-04T07:42:35.696Z,47.97
2022-08-04T07:57:40.316Z,44.78
2022-08-04T08:12:51.464Z,41.40
2022-08-04T08:27:56.154Z,43.09
2022-08-04T08:42:55.408Z,40.99
2022-08-04T08:58:00.185Z,38.32
2022-08-04T09:13:01.803Z,36.83
2022-08-04T09:28:09.219Z,36.24
2022-08-04T09:43:08.625Z,34.63
2022-08-04T09:58:09.342Z,32.92
2022-08-04T10:13:10.560Z,32.79
2022-08-04T10:28:11.737Z,34.56
2022-08-04T10:43:22.271Z,32.89
2022-08-04T10:58:19.079Z,34.16
2022-08-04T11:13:30.070Z,32.60
2022-08-04T11:28:25.773Z,33.20
2022-08-04T11:44:01.608Z,33.29
2022-08-04T11:58:32.856Z,34.32
2022-08-04T12:13:34.007Z,33.28
2022-08-04T12:29:06.811Z,35.40
2022-08-04T12:43:41.475Z,32.99
2022-08-04T12:58:44.123Z,33.60
2022-08-04T13:13:44.286Z,34.45
2022-08-04T13:28:45.031Z,32.60
2022-08-04T13:44:16.892Z,30.88
2022-08-04T13:58:52.681Z,31.33
2022-08-04T14:13:53.769Z,32.39
2022-08-04T14:29:09.815Z,30.94
2022-08-04T14:44:02.327Z,30.56
2022-08-04T14:59:03.460Z,29.97
2022-08-04T15:14:05.506Z,29.68
2022-08-04T15:29:05.341Z,30.38
2022-08-04T15:44:05.998Z,30.76
2022-08-04T15:59:07.194Z,29.10
2022-08-04T16:14:08.827Z,30.77
2022-08-04T16:29:10.063Z,31.57
2022-08-04T16:44:11.197Z,32.57
2022-08-04T16:59:12.525Z,34.02
2022-08-04T17:14:14.307Z,36.11
2022-08-04T17:29:19.817Z,38.11
2022-08-04T17:44:20.703Z,39.43
2022-08-04T17:59:52.005Z,40.76
2022-08-04T18:14:30.475Z,45.84
2022-08-04T18:29:32.184Z,47.99
2022-08-04T18:44:49.402Z,50.56
2022-08-04T18:59:39.553Z,54.13
2022-08-04T19:14:49.612Z,55.49
2022-08-04T19:29:53.748Z,59.84
2022-08-04T19:44:55.249Z,63.59
2022-08-04T19:59:56.421Z,65.43
2022-08-04T20:14:57.119Z,67.31
2022-08-04T20:30:00.279Z,60.06
2022-08-04T20:45:02.043Z,60.06
2022-08-04T21:00:03.212Z,61.83
2022-08-04T21:15:13.917Z,63.25
2022-08-04T21:30:25.107Z,65.20
2022-08-04T21:45:15.243Z,66.52
2022-08-04T22:00:18.288Z,68.46
2022-08-04T22:15:23.223Z,69.99
2022-08-04T22:30:23.794Z,69.43
2022-08-04T22:45:28.550Z,69.72
2022-08-04T23:00:29.366Z,70.65
2022-08-04T23:15:33.654Z,74.00
2022-08-04T23:30:34.719Z,75.10
2022-08-04T23:46:07.520Z,77.88
